Time;durP1;ratioP1;P1;durP2;ratioP2;P2;SDS_P1;SDS_P2;PMS_P1;PMS_P2;Temp;Humidity;BMP_temperature;BMP_pressure;BME280_temperature;BME280_humidity;BME280_pressure;Samples;Min_cycle;Max_cycle;Signal;HPM_P1;HPM_P2
2023/04/16 00:02:31;;;;;;;18.48;11.50;;;;;;;7.93;69.75;101447.78;1738210;82;21255;-57
2023/04/16 00:05:39;;;;;;;16.67;11.63;;;;;;;7.93;69.79;101458.69;1727901;82;21196;-56
2023/04/16 00:08:45;;;;;;;12.50;10.68;;;;;;;7.96;69.89;101452.97;1745738;82;21588;-57
2023/04/16 00:11:51;;;;;;;17.37;11.75;;;;;;;7.99;69.88;101454.58;1745729;82;21259;-58
2023/04/16 00:14:56;;;;;;;18.55;11.40;;;;;;;7.97;69.83;101458.80;1745659;82;21295;-57
2023/04/16 00:18:04;;;;;;;16.07;10.95;;;;;;;8.00;69.92;101461.75;1745724;81;21219;-57
2023/04/16 00:21:10;;;;;;;13.93;10.20;;;;;;;8.02;69.92;101453.81;1745702;81;21329;-56
2023/04/16 00:24:15;;;;;;;16.23;10.25;;;;;;;8.03;69.89;101460.11;1728545;82;21341;-57
2023/04/16 00:27:21;;;;;;;16.75;10.25;;;;;;;8.02;69.89;101443.41;1728732;81;21220;-56
2023/04/16 00:30:29;;;;;;;17.55;9.63;;;;;;;8.02;69.88;101456.55;1745705;82;21227;-56
2023/04/16 00:33:36;;;;;;;14.50;10.03;;;;;;;7.99;69.82;101457.30;1742276;82;21357;-58
2023/04/16 00:36:43;;;;;;;16.62;10.03;;;;;;;7.95;69.73;101458.55;1745686;82;21741;-57
2023/04/16 00:39:49;;;;;;;18.65;9.58;;;;;;;7.85;69.59;101459.00;1745818;82;21535;-58
2023/04/16 00:42:56;;;;;;;14.10;9.88;;;;;;;7.79;69.64;101456.78;1745830;81;21352;-58
2023/04/16 00:46:03;;;;;;;18.50;9.83;;;;;;;7.77;69.73;101451.98;1745814;81;21410;-56
2023/04/16 00:49:10;;;;;;;16.02;10.05;;;;;;;7.76;69.68;101444.78;1745790;82;21209;-57
2023/04/16 00:52:17;;;;;;;17.37;9.30;;;;;;;7.71;69.66;101448.42;1745792;81;21331;-57
2023/04/16 00:55:23;;;;;;;15.70;9.53;;;;;;;7.66;69.63;101452.03;1727166;82;21227;-57
2023/04/16 00:58:29;;;;;;;19.62;9.53;;;;;;;7.66;69.76;101460.21;1744968;82;21382;-57
2023/04/16 01:01:36;;;;;;;21.00;10.82;;;;;;;7.68;69.84;101460.92;1727748;82;21362;-57
2023/04/16 01:04:43;;;;;;;15.35;8.65;;;;;;;7.66;69.80;101458.33;1712170;84;21255;-57
2023/04/16 01:07:50;;;;;;;13.00;9.40;;;;;;;7.67;69.83;101466.89;1748457;82;21220;-57
2023/04/16 01:10:56;;;;;;;15.08;10.13;;;;;;;7.64;69.76;101476.17;1748625;82;21263;-57
2023/04/16 01:14:02;;;;;;;16.10;10.03;;;;;;;7.59;69.65;101472.12;1712163;84;21287;-57
2023/04/16 01:17:11;;;;;;;16.95;9.90;;;;;;;7.54;69.66;101475.73;1712208;83;21279;-56
2023/04/16 01:20:16;;;;;;;14.98;9.55;;;;;;;7.52;69.69;101479.95;1747894;82;21279;-56
2023/04/16 01:23:22;;;;;;;24.47;10.45;;;;;;;7.48;69.70;101481.19;1748119;82;21212;-56
2023/04/16 01:26:27;;;;;;;19.55;9.73;;;;;;;7.48;69.73;101483.08;1730118;82;21200;-57
2023/04/16 01:29:32;;;;;;;15.05;8.93;;;;;;;7.47;69.76;101476.75;1747402;80;21213;-57
2023/04/16 01:32:40;;;;;;;15.25;9.98;;;;;;;7.47;69.76;101480.83;1771398;81;21232;-57
2023/04/16 01:35:46;;;;;;;17.85;9.05;;;;;;;7.45;69.75;101484.17;1770415;81;21345;-56
2023/04/16 01:38:54;;;;;;;16.55;10.40;;;;;;;7.48;69.81;101483.08;1770216;81;21558;-57
2023/04/16 01:42:00;;;;;;;17.40;10.23;;;;;;;7.47;69.76;101474.52;1751926;81;21220;-56
2023/04/16 01:45:06;;;;;;;17.62;10.25;;;;;;;7.41;69.67;101467.73;1776258;80;21196;-56
2023/04/16 01:48:12;;;;;;;15.72;10.23;;;;;;;7.39;69.68;101471.08;1761462;80;21224;-57
2023/04/16 01:51:17;;;;;;;16.02;10.38;;;;;;;7.38;69.78;101474.81;1777549;80;21350;-56
2023/04/16 01:54:24;;;;;;;17.57;10.63;;;;;;;7.40;69.81;101472.80;1754882;81;21802;-56
2023/04/16 01:57:29;;;;;;;16.10;10.55;;;;;;;7.37;69.76;101485.31;1768078;79;21203;-56
2023/04/16 02:00:35;;;;;;;14.80;9.93;;;;;;;7.31;69.69;101480.87;1777058;80;21254;-57
2023/04/16 02:03:41;;;;;;;12.10;9.68;;;;;;;7.27;69.72;101484.37;1776219;80;21770;-57
2023/04/16 02:06:49;;;;;;;15.18;9.13;;;;;;;7.24;69.75;101481.04;1771033;80;21299;-57
2023/04/16 02:09:56;;;;;;;13.50;10.03;;;;;;;7.27;69.92;101495.27;1771678;81;21188;-58
2023/04/16 02:13:02;;;;;;;18.37;10.85;;;;;;;7.28;69.86;101498.34;1771657;79;21683;-57
2023/04/16 02:16:10;;;;;;;16.37;8.75;;;;;;;7.25;69.77;101501.33;1772168;79;21354;-57
2023/04/16 02:19:18;;;;;;;13.55;9.63;;;;;;;7.23;69.80;101495.14;1726775;81;21203;-57
2023/04/16 02:22:24;;;;;;;17.10;10.40;;;;;;;7.28;69.90;101506.52;1744468;80;21260;-57
2023/04/16 02:25:30;;;;;;;17.57;9.68;;;;;;;7.25;69.80;101499.09;1770071;80;21239;-57
2023/04/16 02:28:37;;;;;;;16.90;9.53;;;;;;;7.23;69.77;101501.95;1755915;79;21182;-57
2023/04/16 02:31:43;;;;;;;12.28;8.98;;;;;;;7.19;69.77;101505.94;1791422;78;21221;-57
2023/04/16 02:34:50;;;;;;;15.90;10.18;;;;;;;7.20;69.86;101500.84;1782011;80;21179;-57
2023/04/16 02:37:55;;;;;;;14.07;9.30;;;;;;;7.18;69.81;101500.09;1765859;80;21789;-57
2023/04/16 02:41:00;;;;;;;15.95;9.63;;;;;;;7.15;69.78;101502.23;1779804;79;21179;-57
2023/04/16 02:44:05;;;;;;;16.97;8.90;;;;;;;7.14;69.83;101500.48;1778177;80;21168;-57
2023/04/16 02:47:11;;;;;;;16.73;10.23;;;;;;;7.13;69.85;101501.48;1778252;79;21274;-57
2023/04/16 02:50:18;;;;;;;15.05;9.10;;;;;;;7.08;69.79;101503.23;1778303;80;21730;-57
2023/04/16 02:53:25;;;;;;;16.75;10.10;;;;;;;7.05;69.86;101514.86;1778201;80;21176;-57
2023/04/16 02:56:30;;;;;;;15.70;9.73;;;;;;;7.03;69.87;101525.88;1757626;80;21255;-56
2023/04/16 02:59:35;;;;;;;15.43;9.03;;;;;;;7.03;69.88;101515.47;1723429;82;21193;-58
2023/04/16 03:02:42;;;;;;;14.53;9.65;;;;;;;7.01;69.97;101517.45;1737329;82;21236;-57
2023/04/16 03:05:49;;;;;;;14.73;9.90;;;;;;;7.05;70.10;101519.83;1737650;82;21742;-57
2023/04/16 03:08:54;;;;;;;14.40;9.13;;;;;;;7.10;70.13;101524.88;1737764;82;21268;-57
2023/04/16 03:12:00;;;;;;;13.55;9.48;;;;;;;7.13;70.11;101520.55;1737691;82;21287;-57
2023/04/16 03:15:06;;;;;;;17.77;9.68;;;;;;;7.13;69.99;101518.70;1737869;82;21718;-57
2023/04/16 03:18:14;;;;;;;15.00;8.95;;;;;;;7.12;69.96;101523.75;1738082;82;21330;-57
2023/04/16 03:21:21;;;;;;;17.00;10.05;;;;;;;7.15;69.99;101522.66;1723347;82;21283;-57
2023/04/16 03:24:27;;;;;;;16.17;10.55;;;;;;;7.12;69.89;101529.20;1750036;81;21196;-57
2023/04/16 03:27:34;;;;;;;15.03;9.58;;;;;;;7.04;69.84;101530.32;1746910;82;21256;-58
2023/04/16 03:30:40;;;;;;;17.60;10.43;;;;;;;7.03;69.92;101536.77;1746604;82;21205;-58
2023/04/16 03:33:47;;;;;;;14.50;9.90;;;;;;;7.04;69.98;101538.48;1746866;82;21248;-57
2023/04/16 03:36:55;;;;;;;13.13;9.40;;;;;;;7.08;70.09;101544.56;1738773;82;21189;-57
2023/04/16 03:40:00;;;;;;;16.75;9.80;;;;;;;7.12;70.13;101548.26;1720630;82;21228;-58
2023/04/16 03:43:07;;;;;;;17.37;9.88;;;;;;;7.16;70.13;101545.67;1733402;82;21284;-57
2023/04/16 03:46:13;;;;;;;14.47;9.88;;;;;;;7.19;70.15;101556.80;1713347;82;21293;-58
2023/04/16 03:49:21;;;;;;;14.68;9.28;;;;;;;7.23;70.18;101556.41;1713015;82;21224;-56
2023/04/16 03:52:27;;;;;;;13.00;8.83;;;;;;;7.25;70.13;101560.38;1741324;82;21208;-57
2023/04/16 03:55:33;;;;;;;19.73;10.13;;;;;;;7.26;70.16;101560.24;1736247;82;21189;-57
2023/04/16 03:58:41;;;;;;;18.00;8.85;;;;;;;7.29;70.08;101559.14;1747433;79;21896;-57
2023/04/16 04:01:47;;;;;;;15.53;8.60;;;;;;;7.33;70.14;101562.84;1773356;80;21185;-57
2023/04/16 04:04:56;;;;;;;11.53;8.40;;;;;;;7.34;70.10;101566.45;1795276;80;21304;-57
2023/04/16 04:08:04;;;;;;;14.68;9.50;;;;;;;7.37;70.11;101556.66;1795218;80;21324;-58
2023/04/16 04:11:10;;;;;;;13.98;9.05;;;;;;;7.40;70.14;101558.61;1795285;80;21169;-56
2023/04/16 04:14:17;;;;;;;21.40;8.85;;;;;;;7.45;70.25;101565.91;1795244;80;21151;-57
2023/04/16 04:17:23;;;;;;;13.83;9.30;;;;;;;7.54;70.36;101571.98;1795194;80;21225;-57
2023/04/16 04:20:31;;;;;;;16.55;9.20;;;;;;;7.56;70.17;101579.50;1795188;79;21158;-57
2023/04/16 04:23:41;;;;;;;10.23;7.78;;;;;;;7.53;70.04;101574.31;1796800;79;21240;-57
2023/04/16 04:26:46;;;;;;;15.75;8.85;;;;;;;7.59;70.14;101583.33;1795235;80;21193;-56
2023/04/16 04:29:52;;;;;;;15.45;8.75;;;;;;;7.61;70.06;101586.80;1795333;80;21285;-57
2023/04/16 04:32:57;;;;;;;16.05;8.98;;;;;;;7.66;70.15;101588.30;1793189;78;21181;-56
2023/04/16 04:36:03;;;;;;;16.93;9.08;;;;;;;7.68;70.06;101581.71;1801105;79;21256;-57
2023/04/16 04:39:09;;;;;;;16.97;9.05;;;;;;;7.65;69.99;101581.97;1804257;79;21193;-58
2023/04/16 04:42:15;;;;;;;16.75;8.75;;;;;;;7.68;70.01;101591.73;1801006;79;21232;-58
2023/04/16 04:45:20;;;;;;;14.35;9.70;;;;;;;7.73;70.12;101587.65;1801989;79;21236;-58
2023/04/16 04:48:30;;;;;;;15.85;8.18;;;;;;;7.77;70.06;101581.45;1800934;79;21196;-57
2023/04/16 04:51:35;;;;;;;12.53;8.93;;;;;;;7.77;70.06;101581.45;1801200;79;21197;-57
2023/04/16 04:54:45;;;;;;;15.98;8.90;;;;;;;7.75;69.92;101580.22;1800810;79;21436;-57
2023/04/16 04:57:52;;;;;;;15.68;9.18;;;;;;;7.71;69.86;101580.61;1801867;79;21212;-57
2023/04/16 05:00:57;;;;;;;14.85;8.70;;;;;;;7.63;69.74;101583.95;1802228;79;21201;-56
2023/04/16 05:04:03;;;;;;;15.48;9.30;;;;;;;7.60;69.70;101593.27;1806317;79;21149;-57
2023/04/16 05:07:10;;;;;;;17.32;9.60;;;;;;;7.58;69.81;101593.88;1806133;79;21381;-57
2023/04/16 05:10:18;;;;;;;15.18;8.70;;;;;;;7.58;69.89;101592.52;1806055;79;21222;-56
2023/04/16 05:13:16;;;;;;;15.10;9.65;;;;;;;7.61;69.96;101603.67;1806153;79;21604;-57
2023/04/16 05:16:09;;;;;;;17.60;9.38;;;;;;;7.59;69.86;101600.20;1806356;79;21363;-57
2023/04/16 05:18:56;;;;;;;18.35;8.98;;;;;;;7.59;69.98;101602.41;1805965;79;21196;-58
2023/04/16 05:21:50;;;;;;;12.90;7.83;;;;;;;7.67;70.05;101585.92;1806312;79;21196;-58
2023/04/16 05:24:39;;;;;;;16.50;8.70;;;;;;;7.76;70.20;101602.87;1806120;79;21276;-57
2023/04/16 05:27:34;;;;;;;15.70;8.50;;;;;;;7.80;70.13;101597.55;1806084;79;21224;-57
2023/04/16 05:30:41;;;;;;;15.63;8.80;;;;;;;7.82;69.99;101605.11;1805880;79;21180;-57
2023/04/16 05:33:48;;;;;;;15.32;8.45;;;;;;;7.78;69.85;101607.22;1805482;79;21630;-57
2023/04/16 05:36:54;;;;;;;12.75;8.28;;;;;;;7.73;69.82;101605.37;1805627;79;21385;-57
2023/04/16 05:40:00;;;;;;;9.75;7.60;;;;;;;7.80;70.03;101607.08;1805814;79;21205;-57
2023/04/16 05:43:08;;;;;;;14.30;8.73;;;;;;;7.88;70.06;101616.33;1805812;79;21360;-57
2023/04/16 05:46:14;;;;;;;13.68;8.73;;;;;;;7.90;69.97;101613.48;1805882;79;21209;-58
2023/04/16 05:49:22;;;;;;;14.85;8.18;;;;;;;7.92;69.90;101615.59;1806446;79;21375;-57
2023/04/16 05:52:28;;;;;;;16.42;9.30;;;;;;;7.99;69.94;101615.45;1807443;78;21220;-55
2023/04/16 05:55:35;;;;;;;13.60;9.33;;;;;;;8.03;69.95;101612.82;1806926;79;21204;-56
2023/04/16 05:58:42;;;;;;;15.38;8.78;;;;;;;8.12;69.95;101607.45;1808130;78;21196;-56
2023/04/16 06:01:50;;;;;;;11.40;8.85;;;;;;;8.26;69.99;101616.72;1806454;79;21365;-57
2023/04/16 06:04:58;;;;;;;13.55;8.38;;;;;;;8.36;69.90;101619.03;1809567;79;21326;-57
2023/04/16 06:08:06;;;;;;;14.20;8.28;;;;;;;8.47;69.87;101619.47;1809478;79;21232;-57
2023/04/16 06:11:13;;;;;;;12.47;7.90;;;;;;;8.56;69.79;101622.27;1809232;79;21252;-59
2023/04/16 06:14:20;;;;;;;14.05;8.10;;;;;;;8.67;69.74;101608.55;1809625;79;21176;-57
2023/04/16 06:17:26;;;;;;;14.63;8.83;;;;;;;8.74;69.61;101599.33;1809436;79;21532;-57
2023/04/16 06:20:32;;;;;;;16.20;8.85;;;;;;;8.79;69.54;101604.77;1809526;79;21294;-57
2023/04/16 06:23:39;;;;;;;12.07;8.45;;;;;;;8.83;69.49;101609.46;1809440;79;21231;-58
2023/04/16 06:26:46;;;;;;;11.63;8.30;;;;;;;8.91;69.45;101591.91;1809389;79;21185;-56
2023/04/16 06:29:52;;;;;;;11.55;7.87;;;;;;;8.93;69.43;101604.41;1809557;79;21243;-58
2023/04/16 06:33:01;;;;;;;13.98;7.90;;;;;;;8.95;69.29;101605.64;1809698;79;21372;-57
2023/04/16 06:36:07;;;;;;;13.45;8.23;;;;;;;8.92;69.15;101612.73;1809318;79;21362;-57
2023/04/16 06:39:14;;;;;;;14.47;7.45;;;;;;;8.96;69.32;101615.55;1800912;79;21295;-57
2023/04/16 06:42:21;;;;;;;11.95;7.75;;;;;;;9.09;69.43;101610.25;1809405;79;21204;-58
2023/04/16 06:45:26;;;;;;;12.30;8.35;;;;;;;9.21;69.49;101611.03;1809399;79;21184;-57
2023/04/16 06:48:32;;;;;;;14.75;8.95;;;;;;;9.35;69.48;101603.81;1783462;79;21236;-57
2023/04/16 06:51:38;;;;;;;13.80;8.33;;;;;;;9.34;69.27;101611.63;1800788;79;21267;-57
2023/04/16 06:54:46;;;;;;;18.75;8.68;;;;;;;9.33;69.12;101607.18;1809339;79;21461;-57
2023/04/16 06:57:52;;;;;;;14.38;8.45;;;;;;;9.30;68.98;101614.78;1800949;79;21189;-56
2023/04/16 07:00:58;;;;;;;16.15;8.70;;;;;;;9.34;69.09;101614.36;1809383;79;21350;-56
2023/04/16 07:04:05;;;;;;;13.72;8.53;;;;;;;9.33;68.92;101614.02;1807881;78;21259;-56
2023/04/16 07:07:12;;;;;;;14.58;8.93;;;;;;;9.33;68.96;101616.75;1779195;79;21357;-57
2023/04/16 07:10:20;;;;;;;15.10;7.67;;;;;;;9.28;68.83;101615.41;1779160;80;21188;-57
2023/04/16 07:13:26;;;;;;;13.85;8.00;;;;;;;9.28;68.85;101621.75;1773856;80;21397;-57
2023/04/16 07:16:33;;;;;;;12.40;7.65;;;;;;;9.31;68.82;101622.84;1809052;79;21216;-58
2023/04/16 07:19:40;;;;;;;11.55;7.62;;;;;;;9.39;68.92;101624.91;1780107;79;21323;-58
2023/04/16 07:22:48;;;;;;;18.85;8.23;;;;;;;9.39;68.90;101620.28;1738208;81;21251;-58
2023/04/16 07:25:53;;;;;;;13.20;7.72;;;;;;;9.46;68.99;101606.44;1772812;81;21201;-57
2023/04/16 07:29:02;;;;;;;12.20;7.87;;;;;;;9.63;69.08;101609.00;1774024;81;21334;-57
2023/04/16 07:32:09;;;;;;;14.80;7.22;;;;;;;9.83;69.14;101603.95;1773488;81;21769;-57
2023/04/16 07:35:16;;;;;;;15.18;8.25;;;;;;;10.04;69.13;101604.18;1773374;79;21255;-57
2023/04/16 07:38:23;;;;;;;12.43;7.53;;;;;;;10.23;69.00;101607.45;1772623;81;21340;-57
2023/04/16 07:41:29;;;;;;;13.43;7.92;;;;;;;10.33;68.85;101611.94;1763830;79;21204;-57
2023/04/16 07:44:35;;;;;;;12.28;7.35;;;;;;;10.34;68.54;101611.42;1753557;81;21205;-57
2023/04/16 07:47:40;;;;;;;15.95;7.42;;;;;;;10.29;68.38;101604.17;1698671;84;22039;-57
2023/04/16 07:50:45;;;;;;;11.25;7.37;;;;;;;10.43;68.64;101608.67;1706572;84;21224;-57
2023/04/16 07:53:51;;;;;;;13.18;7.42;;;;;;;10.74;68.97;101602.52;1709702;84;21367;-57
2023/04/16 07:56:57;;;;;;;11.68;7.22;;;;;;;10.94;68.70;101601.98;1708904;84;21217;-57
2023/04/16 08:00:06;;;;;;;10.43;5.58;;;;;;;11.00;68.46;101593.16;1709237;84;21976;-58
2023/04/16 08:03:15;;;;;;;9.43;6.12;;;;;;;11.16;68.41;101601.09;1706228;83;21386;-57
2023/04/16 08:06:22;;;;;;;8.78;6.20;;;;;;;11.26;68.26;101609.27;1700671;84;21240;-57
2023/04/16 08:09:31;;;;;;;10.20;5.78;;;;;;;11.37;68.10;101605.00;1730406;82;21660;-57
2023/04/16 08:12:36;;;;;;;10.98;5.67;;;;;;;11.35;67.74;101598.80;1735466;81;21195;-57
2023/04/16 08:15:41;;;;;;;10.45;5.35;;;;;;;11.46;67.95;101593.11;1740535;82;21164;-58
2023/04/16 08:18:47;;;;;;;10.48;5.72;;;;;;;11.65;68.01;101595.25;1741004;82;21172;-58
2023/04/16 08:21:52;;;;;;;8.13;5.53;;;;;;;11.83;67.83;101598.03;1715622;82;21690;-58
2023/04/16 08:24:58;;;;;;;9.20;5.47;;;;;;;11.94;67.75;101595.95;1740920;82;21661;-58
2023/04/16 08:28:05;;;;;;;11.10;5.95;;;;;;;12.04;67.61;101601.36;1741447;81;21309;-58
2023/04/16 08:31:12;;;;;;;7.47;4.95;;;;;;;12.13;67.39;101595.46;1706036;83;21833;-57
2023/04/16 08:34:18;;;;;;;13.15;5.87;;;;;;;12.14;67.03;101599.92;1752466;82;21274;-58
2023/04/16 08:37:25;;;;;;;15.00;6.33;;;;;;;12.02;66.93;101606.14;1720066;83;21259;-57
2023/04/16 08:40:36;;;;;;;11.55;5.70;;;;;;;11.98;66.89;101604.73;1746027;81;21550;-56
2023/04/16 08:43:42;;;;;;;10.65;5.58;;;;;;;12.10;67.17;101593.88;1766965;80;21262;-58
2023/04/16 08:46:47;;;;;;;10.18;5.08;;;;;;;12.32;67.38;101594.77;1771023;80;21191;-58
2023/04/16 08:49:52;;;;;;;11.20;5.05;;;;;;;12.40;67.13;101593.48;1767496;81;21230;-59
2023/04/16 08:53:05;;;;;;;8.78;5.10;;;;;;;12.47;66.96;101597.83;1771665;79;21356;-57
2023/04/16 08:56:12;;;;;;;12.23;5.37;;;;;;;12.46;66.66;101581.88;1772123;79;21265;-57
2023/04/16 08:59:20;;;;;;;7.70;5.37;;;;;;;12.45;66.53;101588.38;1772261;81;21214;-58
2023/04/16 09:02:27;;;;;;;11.85;5.03;;;;;;;12.34;66.43;101590.00;1772106;79;21202;-57
2023/04/16 09:05:34;;;;;;;11.88;5.42;;;;;;;12.34;66.47;101583.13;1775620;79;21164;-58
2023/04/16 09:08:41;;;;;;;12.85;5.25;;;;;;;12.32;66.55;101581.05;1779079;80;21208;-58
2023/04/16 09:11:49;;;;;;;9.33;5.20;;;;;;;12.45;66.65;101588.88;1778435;80;21208;-58
2023/04/16 09:15:01;;;;;;;7.83;5.37;;;;;;;12.57;66.64;101589.87;1753542;80;21197;-59
2023/04/16 09:18:07;;;;;;;9.63;5.30;;;;;;;12.74;66.66;101588.97;1772754;81;21220;-57
2023/04/16 09:21:17;;;;;;;8.15;5.40;;;;;;;12.84;66.41;101588.87;1772599;81;21219;-57
2023/04/16 09:24:24;;;;;;;11.00;5.37;;;;;;;12.91;66.32;101573.44;1772809;81;21197;-57
2023/04/16 09:27:29;;;;;;;8.83;4.85;;;;;;;12.87;65.99;101570.67;1774070;80;21749;-57
2023/04/16 09:30:36;;;;;;;12.65;7.62;;;;;;;12.88;66.16;101573.27;1776499;80;21203;-57
2023/04/16 09:33:43;;;;;;;16.10;6.65;;;;;;;12.98;66.18;101578.15;1772925;81;21798;-57
2023/04/16 09:36:51;;;;;;;8.68;5.65;;;;;;;13.02;66.09;101573.20;1772997;81;21210;-58
2023/04/16 09:40:10;;;;;;;12.47;5.87;;;;;;;13.06;66.11;101579.61;1772990;81;21703;-58
2023/04/16 09:43:21;;;;;;;9.00;5.47;;;;;;;13.13;66.04;101582.03;1772989;81;21217;-58
2023/04/16 09:46:37;;;;;;;9.03;5.17;;;;;;;13.21;65.90;101586.21;1774178;81;21407;-57
2023/04/16 09:49:48;;;;;;;8.58;5.20;;;;;;;13.24;65.76;101576.25;1774043;81;21212;-58
2023/04/16 09:52:58;;;;;;;11.20;4.87;;;;;;;13.24;65.68;101585.04;1773594;81;21275;-58
2023/04/16 09:56:06;;;;;;;7.95;5.05;;;;;;;13.30;65.85;101585.22;1774154;81;21820;-58
2023/04/16 09:59:13;;;;;;;11.48;5.37;;;;;;;13.31;65.78;101586.96;1789355;79;21279;-58
2023/04/16 10:02:21;;;;;;;9.25;4.75;;;;;;;13.45;65.90;101582.72;1808517;78;21213;-58
2023/04/16 10:05:28;;;;;;;9.50;5.10;;;;;;;13.52;65.83;101587.38;1759930;78;21226;-58
2023/04/16 10:08:35;;;;;;;8.88;4.70;;;;;;;13.53;65.50;101592.38;1770928;80;21180;-58
2023/04/16 10:11:40;;;;;;;10.60;4.62;;;;;;;13.50;65.49;101589.46;1767883;80;21288;-57
2023/04/16 10:14:45;;;;;;;6.22;4.83;;;;;;;13.52;65.53;101587.92;1793577;80;21726;-56
2023/04/16 10:17:52;;;;;;;10.72;5.08;;;;;;;13.57;65.51;101584.16;1756291;80;21204;-57
2023/04/16 10:20:59;;;;;;;11.57;4.60;;;;;;;13.63;65.48;101589.50;1764983;79;21204;-58
2023/04/16 10:24:04;;;;;;;10.68;5.28;;;;;;;13.64;65.47;101582.98;1764325;79;21243;-58
2023/04/16 10:27:11;;;;;;;8.38;5.03;;;;;;;13.59;65.31;101585.38;1761134;81;21192;-58
2023/04/16 10:30:17;;;;;;;9.55;4.62;;;;;;;13.52;65.23;101588.76;1756485;80;21538;-58
2023/04/16 10:33:23;;;;;;;8.00;4.55;;;;;;;13.47;65.25;101581.54;1779879;80;21196;-58
2023/04/16 10:36:33;;;;;;;6.92;4.87;;;;;;;13.47;65.28;101580.16;1755800;79;21205;-58
2023/04/16 10:39:38;;;;;;;6.97;4.50;;;;;;;13.44;65.16;101591.50;1755572;79;21251;-57
2023/04/16 10:42:47;;;;;;;9.75;4.67;;;;;;;13.31;65.07;101592.46;1781811;79;21227;-58
2023/04/16 10:45:54;;;;;;;6.22;4.00;;;;;;;13.24;65.05;101588.63;1779102;79;21322;-57
2023/04/16 10:49:01;;;;;;;10.05;4.75;;;;;;;13.12;65.06;101589.95;1736720;81;21164;-57
2023/04/16 10:52:23;;;;;;;7.50;4.40;;;;;;;13.00;64.99;101581.61;1778602;79;21274;-57
2023/04/16 10:55:30;;;;;;;9.23;4.40;;;;;;;12.94;65.05;101584.98;1772708;81;21350;-57
2023/04/16 10:58:38;;;;;;;7.97;4.60;;;;;;;12.97;65.17;101579.15;1740801;80;21184;-57
2023/04/16 11:01:52;;;;;;;8.80;4.55;;;;;;;13.05;65.23;101572.36;1781339;79;21746;-57
2023/04/16 11:04:59;;;;;;;9.03;4.55;;;;;;;13.17;65.34;101572.95;1760115;80;21236;-57
2023/04/16 11:08:05;;;;;;;7.28;4.28;;;;;;;13.22;65.23;101572.80;1772755;79;21251;-58
2023/04/16 11:11:14;;;;;;;7.37;3.90;;;;;;;13.29;65.18;101568.38;1774417;79;21232;-57
2023/04/16 11:14:19;;;;;;;10.30;4.42;;;;;;;13.31;65.11;101559.96;1777231;80;21259;-57
2023/04/16 11:17:26;;;;;;;9.83;4.45;;;;;;;13.31;64.94;101559.45;1778740;79;21216;-58
2023/04/16 11:20:34;;;;;;;8.98;4.53;;;;;;;13.26;64.86;101548.09;1778810;80;21214;-58
2023/04/16 11:23:55;;;;;;;6.85;4.15;;;;;;;13.23;64.86;101553.05;1756205;80;21224;-58
2023/04/16 11:27:01;;;;;;;9.05;4.50;;;;;;;13.18;64.83;101554.92;1740916;81;21398;-58
2023/04/16 11:30:12;;;;;;;10.18;4.12;;;;;;;13.14;64.82;101552.16;1741875;81;21204;-58
2023/04/16 11:33:18;;;;;;;7.83;4.05;;;;;;;13.06;64.75;101552.63;1742334;82;21212;-57
2023/04/16 11:36:24;;;;;;;10.63;4.45;;;;;;;13.00;64.84;101539.50;1741329;80;21268;-57
2023/04/16 11:39:30;;;;;;;8.35;4.50;;;;;;;12.96;64.85;101533.96;1747444;80;21363;-59
2023/04/16 11:42:39;;;;;;;7.45;4.12;;;;;;;12.91;64.71;101537.20;1735819;81;21269;-58
2023/04/16 11:46:05;;;;;;;6.80;4.25;;;;;;;12.89;64.77;101528.78;1735547;82;21767;-57
2023/04/16 11:49:12;;;;;;;6.85;4.17;;;;;;;12.84;64.73;101525.16;1720233;82;21218;-59
2023/04/16 11:52:18;;;;;;;8.33;4.50;;;;;;;12.80;64.77;101525.11;1745769;80;21610;-57
2023/04/16 11:55:23;;;;;;;11.22;4.22;;;;;;;12.80;64.78;101529.73;1746396;82;21591;-58
2023/04/16 11:58:31;;;;;;;8.53;4.97;;;;;;;12.82;64.70;101524.95;1730138;82;21250;-58
2023/04/16 12:01:39;;;;;;;8.23;5.08;;;;;;;12.86;64.65;101532.70;1747387;80;21352;-59
2023/04/16 12:04:45;;;;;;;7.28;4.53;;;;;;;12.90;64.62;101535.99;1747902;80;21222;-58
2023/04/16 12:07:51;;;;;;;9.98;4.95;;;;;;;12.96;64.71;101527.09;1737083;81;21767;-57
2023/04/16 12:11:02;;;;;;;7.35;4.80;;;;;;;13.06;64.81;101530.12;1771362;81;21323;-57
2023/04/16 12:14:20;;;;;;;7.58;4.33;;;;;;;13.18;64.78;101532.05;1780459;80;21369;-57
2023/04/16 12:17:29;;;;;;;10.40;4.65;;;;;;;13.26;64.75;101527.46;1781364;80;21204;-58
2023/04/16 12:20:42;;;;;;;7.72;4.60;;;;;;;13.39;64.70;101521.48;1781325;80;21310;-58
2023/04/16 12:23:51;;;;;;;7.17;4.95;;;;;;;13.45;64.63;101517.56;1780862;80;21247;-58
2023/04/16 12:27:01;;;;;;;11.10;4.42;;;;;;;13.55;64.67;101520.17;1774097;80;21204;-58
2023/04/16 12:30:13;;;;;;;9.28;4.53;;;;;;;13.66;64.65;101512.11;1774195;80;21339;-58
2023/04/16 12:33:23;;;;;;;6.00;4.50;;;;;;;13.73;64.54;101507.67;1774378;81;21244;-58
2023/04/16 12:36:30;;;;;;;11.25;6.95;;;;;;;13.83;64.62;101507.85;1740372;81;21233;-57
2023/04/16 12:39:37;;;;;;;18.20;10.23;;;;;;;13.91;64.41;101506.99;1740064;82;21201;-57
2023/04/16 12:42:49;;;;;;;9.30;6.17;;;;;;;13.92;64.24;101509.57;1740020;81;21619;-56
2023/04/16 12:45:56;;;;;;;7.22;4.87;;;;;;;13.98;64.32;101502.55;1739660;81;21232;-57
2023/04/16 12:49:02;;;;;;;10.18;4.95;;;;;;;14.08;64.35;101497.74;1739963;82;21193;-58
2023/04/16 12:52:10;;;;;;;9.30;4.25;;;;;;;14.15;64.29;101488.61;1715213;82;21582;-58
2023/04/16 12:55:16;;;;;;;9.08;4.60;;;;;;;14.19;64.16;101491.36;1777602;80;21156;-58
2023/04/16 12:58:23;;;;;;;7.05;4.25;;;;;;;14.26;64.20;101481.41;1767410;79;21318;-58
2023/04/16 13:01:29;;;;;;;8.68;4.30;;;;;;;14.33;64.06;101482.97;1745820;80;21208;-58
2023/04/16 13:04:35;;;;;;;11.25;4.12;;;;;;;14.39;64.00;101487.77;1799740;79;21280;-58
2023/04/16 13:07:43;;;;;;;6.92;4.47;;;;;;;14.44;63.98;101484.86;1780776;79;21219;-58
2023/04/16 13:10:49;;;;;;;6.60;4.08;;;;;;;14.46;63.86;101480.01;1774295;79;21251;-57
2023/04/16 13:13:55;;;;;;;7.60;4.28;;;;;;;14.50;63.94;101481.91;1771439;81;21314;-58
2023/04/16 13:17:02;;;;;;;10.43;4.45;;;;;;;14.52;63.82;101479.84;1771504;79;21753;-58
2023/04/16 13:20:08;;;;;;;6.33;4.62;;;;;;;14.55;63.81;101482.25;1771623;81;21240;-57
2023/04/16 13:23:09;;;;;;;8.05;4.37;;;;;;;14.61;63.82;101470.52;1772277;79;21212;-58
2023/04/16 13:26:16;;;;;;;13.68;4.60;;;;;;;14.70;63.82;101474.97;1772670;79;21192;-58
2023/04/16 13:29:23;;;;;;;9.13;4.50;;;;;;;14.77;63.77;101476.00;1772563;80;21315;-57
2023/04/16 13:32:29;;;;;;;7.35;4.45;;;;;;;14.83;63.70;101473.91;1768559;80;21239;-58
2023/04/16 13:35:36;;;;;;;7.12;4.12;;;;;;;14.88;63.61;101470.11;1767374;80;21224;-58
2023/04/16 13:38:41;;;;;;;8.23;4.75;;;;;;;14.91;63.47;101473.88;1767599;80;22003;-57
2023/04/16 13:41:51;;;;;;;10.00;5.37;;;;;;;14.95;63.48;101465.08;1767798;80;21258;-58
2023/04/16 13:44:56;;;;;;;9.30;4.53;;;;;;;14.96;63.29;101471.46;1757457;81;21200;-58
2023/04/16 13:48:04;;;;;;;7.10;5.12;;;;;;;14.90;63.19;101467.50;1768601;80;21228;-58
2023/04/16 13:51:12;;;;;;;8.55;4.55;;;;;;;14.85;63.16;101460.81;1769616;80;21244;-57
2023/04/16 13:54:18;;;;;;;7.53;4.30;;;;;;;14.86;63.27;101459.77;1746237;81;21606;-58
2023/04/16 13:57:25;;;;;;;8.58;4.30;;;;;;;14.89;63.19;101458.90;1767783;80;21377;-58
2023/04/16 14:00:26;;;;;;;9.20;4.40;;;;;;;14.92;63.22;101464.59;1766729;81;21225;-57
2023/04/16 14:03:20;;;;;;;8.23;4.50;;;;;;;14.96;63.14;101466.81;1746169;80;21359;-58
2023/04/16 14:06:27;;;;;;;9.15;3.80;;;;;;;14.98;63.02;101466.63;1766323;81;21264;-58
2023/04/16 14:09:33;;;;;;;5.87;3.35;;;;;;;15.02;63.02;101459.70;1765852;81;21193;-58
2023/04/16 14:12:41;;;;;;;5.67;3.33;;;;;;;15.09;63.01;101455.72;1762501;81;22165;-57
2023/04/16 14:15:47;;;;;;;5.35;3.12;;;;;;;15.14;62.95;101461.56;1764129;81;21177;-57
2023/04/16 14:18:53;;;;;;;7.97;3.70;;;;;;;15.18;62.84;101454.64;1765080;80;21204;-58
2023/04/16 14:22:00;;;;;;;8.23;3.60;;;;;;;15.19;62.78;101458.59;1770520;80;21729;-57
2023/04/16 14:25:08;;;;;;;7.50;3.60;;;;;;;15.12;62.54;101457.61;1766802;80;21264;-58